sensor_id;sensor_type;location;lat;lon;timestamp;temperature;humidity
32612;DHT22;19030;49.478;8.986;2023-05-21T00:01:39;16.00;99.90
32612;DHT22;19030;49.478;8.986;2023-05-21T00:03:39;16.10;99.90
32612;DHT22;19030;49.478;8.986;2023-05-21T00:05:42;16.10;99.90
32612;DHT22;19030;49.478;8.986;2023-05-21T00:07:44;16.10;99.90
32612;DHT22;19030;49.478;8.986;2023-05-21T00:09:46;16.20;99.90
32612;DHT22;19030;49.478;8.986;2023-05-21T00:11:46;16.20;99.90
32612;DHT22;19030;49.478;8.986;2023-05-21T00:13:47;16.20;99.90
32612;DHT22;19030;49.478;8.986;2023-05-21T00:15:47;16.20;99.90
32612;DHT22;19030;49.478;8.986;2023-05-21T00:17:48;16.20;99.90
32612;DHT22;19030;49.478;8.986;2023-05-21T00:19:48;16.20;99.90
32612;DHT22;19030;49.478;8.986;2023-05-21T00:21:49;16.20;99.90
32612;DHT22;19030;49.478;8.986;2023-05-21T00:23:50;16.10;99.90
32612;DHT22;19030;49.478;8.986;2023-05-21T00:25:53;16.10;99.90
32612;DHT22;19030;49.478;8.986;2023-05-21T00:27:54;16.10;99.90
32612;DHT22;19030;49.478;8.986;2023-05-21T00:29:54;16.10;99.90
32612;DHT22;19030;49.478;8.986;2023-05-21T00:31:55;16.10;99.90
32612;DHT22;19030;49.478;8.986;2023-05-21T00:33:56;16.10;99.90
32612;DHT22;19030;49.478;8.986;2023-05-21T00:35:56;16.10;99.90
32612;DHT22;19030;49.478;8.986;2023-05-21T00:37:57;16.00;99.90
32612;DHT22;19030;49.478;8.986;2023-05-21T00:39:59;16.00;99.90
32612;DHT22;19030;49.478;8.986;2023-05-21T00:42:00;16.00;99.90
32612;DHT22;19030;49.478;8.986;2023-05-21T00:44:00;16.00;99.90
32612;DHT22;19030;49.478;8.986;2023-05-21T00:46:02;16.00;99.90
32612;DHT22;19030;49.478;8.986;2023-05-21T00:48:03;16.00;99.90
32612;DHT22;19030;49.478;8.986;2023-05-21T00:50:04;16.00;99.90
32612;DHT22;19030;49.478;8.986;2023-05-21T00:52:05;16.00;99.90
32612;DHT22;19030;49.478;8.986;2023-05-21T00:54:07;16.00;99.90
32612;DHT22;19030;49.478;8.986;2023-05-21T00:56:08;16.00;99.90
32612;DHT22;19030;49.478;8.986;2023-05-21T00:58:08;15.90;99.90
32612;DHT22;19030;49.478;8.986;2023-05-21T01:00:10;15.90;99.90
32612;DHT22;19030;49.478;8.986;2023-05-21T01:02:11;15.90;99.90
32612;DHT22;19030;49.478;8.986;2023-05-21T01:04:13;15.90;99.90
32612;DHT22;19030;49.478;8.986;2023-05-21T01:06:14;15.90;99.90
32612;DHT22;19030;49.478;8.986;2023-05-21T01:08:15;15.90;99.90
32612;DHT22;19030;49.478;8.986;2023-05-21T01:10:17;15.80;99.90
32612;DHT22;19030;49.478;8.986;2023-05-21T01:12:19;15.80;99.90
32612;DHT22;19030;49.478;8.986;2023-05-21T01:14:21;15.80;99.90
32612;DHT22;19030;49.478;8.986;2023-05-21T01:16:23;15.80;99.90
32612;DHT22;19030;49.478;8.986;2023-05-21T01:18:25;15.80;99.90
32612;DHT22;19030;49.478;8.986;2023-05-21T01:20:27;15.80;99.90
32612;DHT22;19030;49.478;8.986;2023-05-21T01:22:31;15.80;99.90
32612;DHT22;19030;49.478;8.986;2023-05-21T01:24:32;15.80;99.90
32612;DHT22;19030;49.478;8.986;2023-05-21T01:26:33;15.80;99.90
32612;DHT22;19030;49.478;8.986;2023-05-21T01:28:37;15.70;99.90
32612;DHT22;19030;49.478;8.986;2023-05-21T01:30:40;15.70;99.90
32612;DHT22;19030;49.478;8.986;2023-05-21T01:32:50;15.70;99.90
32612;DHT22;19030;49.478;8.986;2023-05-21T01:37:21;15.60;99.90
32612;DHT22;19030;49.478;8.986;2023-05-21T01:39:28;15.60;99.90
32612;DHT22;19030;49.478;8.986;2023-05-21T01:41:33;15.60;99.90
32612;DHT22;19030;49.478;8.986;2023-05-21T01:43:38;15.70;99.90
32612;DHT22;19030;49.478;8.986;2023-05-21T01:45:41;15.70;99.90
32612;DHT22;19030;49.478;8.986;2023-05-21T01:47:45;15.70;99.90
32612;DHT22;19030;49.478;8.986;2023-05-21T01:49:47;15.70;99.90
32612;DHT22;19030;49.478;8.986;2023-05-21T01:51:48;15.70;99.90
32612;DHT22;19030;49.478;8.986;2023-05-21T01:53:49;15.70;99.90
32612;DHT22;19030;49.478;8.986;2023-05-21T01:55:49;15.70;99.90
32612;DHT22;19030;49.478;8.986;2023-05-21T01:57:51;15.70;99.90
32612;DHT22;19030;49.478;8.986;2023-05-21T01:59:53;15.70;99.90
32612;DHT22;19030;49.478;8.986;2023-05-21T02:01:55;15.70;99.90
32612;DHT22;19030;49.478;8.986;2023-05-21T02:03:56;15.70;99.90
32612;DHT22;19030;49.478;8.986;2023-05-21T02:05:57;15.80;99.90
32612;DHT22;19030;49.478;8.986;2023-05-21T02:07:58;15.80;99.90
32612;DHT22;19030;49.478;8.986;2023-05-21T02:10:00;15.80;99.90
32612;DHT22;19030;49.478;8.986;2023-05-21T02:12:02;15.80;99.90
32612;DHT22;19030;49.478;8.986;2023-05-21T02:14:02;15.80;99.90
32612;DHT22;19030;49.478;8.986;2023-05-21T02:16:04;15.70;99.90
32612;DHT22;19030;49.478;8.986;2023-05-21T02:18:04;15.80;99.90
32612;DHT22;19030;49.478;8.986;2023-05-21T02:20:10;15.70;99.90
32612;DHT22;19030;49.478;8.986;2023-05-21T02:22:11;15.80;99.90
32612;DHT22;19030;49.478;8.986;2023-05-21T02:24:12;15.80;99.90
32612;DHT22;19030;49.478;8.986;2023-05-21T02:26:13;15.80;99.90
32612;DHT22;19030;49.478;8.986;2023-05-21T02:28:14;15.70;99.90
32612;DHT22;19030;49.478;8.986;2023-05-21T02:30:15;15.80;99.90
32612;DHT22;19030;49.478;8.986;2023-05-21T02:32:15;15.80;99.90
32612;DHT22;19030;49.478;8.986;2023-05-21T02:34:16;15.80;99.90
32612;DHT22;19030;49.478;8.986;2023-05-21T02:36:19;15.80;99.90
32612;DHT22;19030;49.478;8.986;2023-05-21T02:38:20;15.80;99.90
32612;DHT22;19030;49.478;8.986;2023-05-21T02:40:22;15.80;99.90
32612;DHT22;19030;49.478;8.986;2023-05-21T02:42:24;15.80;99.90
32612;DHT22;19030;49.478;8.986;2023-05-21T02:44:25;15.80;99.90
32612;DHT22;19030;49.478;8.986;2023-05-21T02:46:25;15.80;99.90
32612;DHT22;19030;49.478;8.986;2023-05-21T02:48:26;15.80;99.90
32612;DHT22;19030;49.478;8.986;2023-05-21T02:50:27;15.80;99.90
32612;DHT22;19030;49.478;8.986;2023-05-21T02:52:31;15.80;99.90
32612;DHT22;19030;49.478;8.986;2023-05-21T02:54:32;15.80;99.90
32612;DHT22;19030;49.478;8.986;2023-05-21T02:56:32;15.80;99.90
32612;DHT22;19030;49.478;8.986;2023-05-21T02:58:33;15.80;99.90
32612;DHT22;19030;49.478;8.986;2023-05-21T03:00:34;15.80;99.90
32612;DHT22;19030;49.478;8.986;2023-05-21T03:02:35;15.80;99.90
32612;DHT22;19030;49.478;8.986;2023-05-21T03:04:35;15.80;99.90
32612;DHT22;19030;49.478;8.986;2023-05-21T03:06:38;15.80;99.90
32612;DHT22;19030;49.478;8.986;2023-05-21T03:08:38;15.80;99.90
32612;DHT22;19030;49.478;8.986;2023-05-21T03:10:39;15.80;99.90
32612;DHT22;19030;49.478;8.986;2023-05-21T03:12:40;15.70;99.90
32612;DHT22;19030;49.478;8.986;2023-05-21T03:14:40;15.70;99.90
32612;DHT22;19030;49.478;8.986;2023-05-21T03:16:45;15.70;99.90
32612;DHT22;19030;49.478;8.986;2023-05-21T03:18:46;15.70;99.90
32612;DHT22;19030;49.478;8.986;2023-05-21T03:20:47;15.60;99.90
32612;DHT22;19030;49.478;8.986;2023-05-21T03:22:48;15.60;99.90
32612;DHT22;19030;49.478;8.986;2023-05-21T03:24:49;15.60;99.90
32612;DHT22;19030;49.478;8.986;2023-05-21T03:26:51;15.50;99.90
32612;DHT22;19030;49.478;8.986;2023-05-21T03:28:53;15.50;99.90
32612;DHT22;19030;49.478;8.986;2023-05-21T03:30:54;15.50;99.90
32612;DHT22;19030;49.478;8.986;2023-05-21T03:33:12;15.40;99.90
32612;DHT22;19030;49.478;8.986;2023-05-21T03:35:14;15.40;99.90
32612;DHT22;19030;49.478;8.986;2023-05-21T03:37:15;15.40;99.90
32612;DHT22;19030;49.478;8.986;2023-05-21T03:39:16;15.40;99.90
32612;DHT22;19030;49.478;8.986;2023-05-21T03:41:17;15.40;99.90
32612;DHT22;19030;49.478;8.986;2023-05-21T03:43:22;15.30;99.90
32612;DHT22;19030;49.478;8.986;2023-05-21T03:45:22;15.30;99.90
32612;DHT22;19030;49.478;8.986;2023-05-21T03:47:41;15.30;99.90
32612;DHT22;19030;49.478;8.986;2023-05-21T03:49:43;15.30;99.90
32612;DHT22;19030;49.478;8.986;2023-05-21T03:51:44;15.30;99.90
32612;DHT22;19030;49.478;8.986;2023-05-21T03:53:49;15.30;99.90
32612;DHT22;19030;49.478;8.986;2023-05-21T03:55:49;15.30;99.90
32612;DHT22;19030;49.478;8.986;2023-05-21T03:57:55;15.40;99.90
32612;DHT22;19030;49.478;8.986;2023-05-21T03:59:56;15.40;99.90
32612;DHT22;19030;49.478;8.986;2023-05-21T04:01:59;15.50;99.90
32612;DHT22;19030;49.478;8.986;2023-05-21T04:03:59;15.40;99.90
32612;DHT22;19030;49.478;8.986;2023-05-21T04:06:02;15.50;99.90
32612;DHT22;19030;49.478;8.986;2023-05-21T04:08:02;15.50;99.90
32612;DHT22;19030;49.478;8.986;2023-05-21T04:10:04;15.60;99.90
32612;DHT22;19030;49.478;8.986;2023-05-21T04:12:06;15.60;99.90
32612;DHT22;19030;49.478;8.986;2023-05-21T04:14:07;15.60;99.90
32612;DHT22;19030;49.478;8.986;2023-05-21T04:16:07;15.70;99.90
32612;DHT22;19030;49.478;8.986;2023-05-21T04:18:08;15.70;99.90
32612;DHT22;19030;49.478;8.986;2023-05-21T04:20:12;15.70;99.90
32612;DHT22;19030;49.478;8.986;2023-05-21T04:22:13;15.80;99.90
32612;DHT22;19030;49.478;8.986;2023-05-21T04:24:14;15.80;99.90
32612;DHT22;19030;49.478;8.986;2023-05-21T04:26:26;15.90;99.90
32612;DHT22;19030;49.478;8.986;2023-05-21T04:28:27;16.00;99.90
32612;DHT22;19030;49.478;8.986;2023-05-21T04:30:29;16.10;99.90
32612;DHT22;19030;49.478;8.986;2023-05-21T04:32:30;16.20;99.90
32612;DHT22;19030;49.478;8.986;2023-05-21T04:34:34;16.20;99.90
32612;DHT22;19030;49.478;8.986;2023-05-21T04:36:35;16.30;99.90
32612;DHT22;19030;49.478;8.986;2023-05-21T04:38:35;16.30;99.90
32612;DHT22;19030;49.478;8.986;2023-05-21T04:40:39;16.40;99.90
32612;DHT22;19030;49.478;8.986;2023-05-21T04:42:40;16.40;99.90
32612;DHT22;19030;49.478;8.986;2023-05-21T04:44:41;16.50;99.90
32612;DHT22;19030;49.478;8.986;2023-05-21T04:46:43;16.50;99.90
32612;DHT22;19030;49.478;8.986;2023-05-21T04:48:45;16.60;99.90
32612;DHT22;19030;49.478;8.986;2023-05-21T04:50:46;16.60;99.90
32612;DHT22;19030;49.478;8.986;2023-05-21T04:52:49;16.60;99.90
32612;DHT22;19030;49.478;8.986;2023-05-21T04:54:49;16.70;99.90
32612;DHT22;19030;49.478;8.986;2023-05-21T04:56:50;16.70;99.90
32612;DHT22;19030;49.478;8.986;2023-05-21T04:58:52;16.70;99.90
32612;DHT22;19030;49.478;8.986;2023-05-21T05:00:53;16.80;99.90
32612;DHT22;19030;49.478;8.986;2023-05-21T05:02:55;16.80;99.90
32612;DHT22;19030;49.478;8.986;2023-05-21T05:04:55;16.90;99.90
32612;DHT22;19030;49.478;8.986;2023-05-21T05:06:56;16.90;99.90
32612;DHT22;19030;49.478;8.986;2023-05-21T05:08:57;17.00;99.90
32612;DHT22;19030;49.478;8.986;2023-05-21T05:10:59;17.00;99.90
32612;DHT22;19030;49.478;8.986;2023-05-21T05:12:59;17.10;99.90
32612;DHT22;19030;49.478;8.986;2023-05-21T05:15:01;17.10;99.90
32612;DHT22;19030;49.478;8.986;2023-05-21T05:17:02;17.10;99.90
32612;DHT22;19030;49.478;8.986;2023-05-21T05:19:03;17.20;99.90
32612;DHT22;19030;49.478;8.986;2023-05-21T05:21:04;17.30;99.90
32612;DHT22;19030;49.478;8.986;2023-05-21T05:23:05;17.30;99.90
32612;DHT22;19030;49.478;8.986;2023-05-21T05:25:06;17.40;99.90
32612;DHT22;19030;49.478;8.986;2023-05-21T05:27:07;17.50;99.90
32612;DHT22;19030;49.478;8.986;2023-05-21T05:29:08;17.50;99.90
32612;DHT22;19030;49.478;8.986;2023-05-21T05:31:08;17.50;99.90
32612;DHT22;19030;49.478;8.986;2023-05-21T05:33:09;17.60;99.90
32612;DHT22;19030;49.478;8.986;2023-05-21T05:35:11;17.60;99.90
32612;DHT22;19030;49.478;8.986;2023-05-21T05:37:12;17.70;99.90
32612;DHT22;19030;49.478;8.986;2023-05-21T05:39:12;17.80;99.90
32612;DHT22;19030;49.478;8.986;2023-05-21T05:41:13;17.90;99.90
32612;DHT22;19030;49.478;8.986;2023-05-21T05:43:14;18.00;99.90
32612;DHT22;19030;49.478;8.986;2023-05-21T05:45:15;18.00;99.90
32612;DHT22;19030;49.478;8.986;2023-05-21T05:47:16;18.10;99.90
32612;DHT22;19030;49.478;8.986;2023-05-21T05:49:17;18.20;99.90
32612;DHT22;19030;49.478;8.986;2023-05-21T05:51:18;18.30;99.90
32612;DHT22;19030;49.478;8.986;2023-05-21T05:53:19;18.30;99.90
32612;DHT22;19030;49.478;8.986;2023-05-21T05:55:20;18.40;99.90
32612;DHT22;19030;49.478;8.986;2023-05-21T05:57:21;18.50;99.90
32612;DHT22;19030;49.478;8.986;2023-05-21T05:59:24;18.50;99.90
32612;DHT22;19030;49.478;8.986;2023-05-21T06:01:29;18.60;99.90
32612;DHT22;19030;49.478;8.986;2023-05-21T06:03:31;18.70;99.90
32612;DHT22;19030;49.478;8.986;2023-05-21T06:05:32;18.80;99.90
32612;DHT22;19030;49.478;8.986;2023-05-21T06:07:32;18.90;99.90
32612;DHT22;19030;49.478;8.986;2023-05-21T06:09:33;19.10;99.90
32612;DHT22;19030;49.478;8.986;2023-05-21T06:11:34;19.20;99.90
32612;DHT22;19030;49.478;8.986;2023-05-21T06:13:34;19.20;99.90
32612;DHT22;19030;49.478;8.986;2023-05-21T06:15:36;19.40;99.90
32612;DHT22;19030;49.478;8.986;2023-05-21T06:17:38;19.40;99.90
32612;DHT22;19030;49.478;8.986;2023-05-21T06:19:39;19.50;99.90
32612;DHT22;19030;49.478;8.986;2023-05-21T06:21:39;19.60;99.90
32612;DHT22;19030;49.478;8.986;2023-05-21T06:23:41;19.60;99.90
32612;DHT22;19030;49.478;8.986;2023-05-21T06:25:44;19.70;99.90
32612;DHT22;19030;49.478;8.986;2023-05-21T06:27:45;19.80;99.90
32612;DHT22;19030;49.478;8.986;2023-05-21T06:29:52;20.00;99.90
32612;DHT22;19030;49.478;8.986;2023-05-21T06:31:53;20.10;99.90
32612;DHT22;19030;49.478;8.986;2023-05-21T06:33:53;20.20;99.90
32612;DHT22;19030;49.478;8.986;2023-05-21T06:35:54;20.30;99.90
32612;DHT22;19030;49.478;8.986;2023-05-21T06:37:55;20.50;99.90
32612;DHT22;19030;49.478;8.986;2023-05-21T06:39:55;20.70;99.90
32612;DHT22;19030;49.478;8.986;2023-05-21T06:41:56;20.80;99.90
32612;DHT22;19030;49.478;8.986;2023-05-21T06:44:15;21.00;99.90
32612;DHT22;19030;49.478;8.986;2023-05-21T06:46:51;21.30;99.90
32612;DHT22;19030;49.478;8.986;2023-05-21T06:48:53;21.80;99.90
32612;DHT22;19030;49.478;8.986;2023-05-21T06:50:54;22.20;99.90
32612;DHT22;19030;49.478;8.986;2023-05-21T06:52:54;22.50;99.90
32612;DHT22;19030;49.478;8.986;2023-05-21T06:54:55;22.70;99.90
32612;DHT22;19030;49.478;8.986;2023-05-21T06:56:57;22.80;99.90
32612;DHT22;19030;49.478;8.986;2023-05-21T06:58:58;22.80;99.90
32612;DHT22;19030;49.478;8.986;2023-05-21T07:00:59;22.80;99.90
32612;DHT22;19030;49.478;8.986;2023-05-21T07:03:01;22.90;99.90
32612;DHT22;19030;49.478;8.986;2023-05-21T07:05:01;23.00;99.90
32612;DHT22;19030;49.478;8.986;2023-05-21T07:07:02;23.00;99.90
32612;DHT22;19030;49.478;8.986;2023-05-21T07:09:05;23.00;99.90
32612;DHT22;19030;49.478;8.986;2023-05-21T07:11:05;23.00;99.90
32612;DHT22;19030;49.478;8.986;2023-05-21T07:13:07;23.00;99.90
32612;DHT22;19030;49.478;8.986;2023-05-21T07:15:11;23.10;99.90
32612;DHT22;19030;49.478;8.986;2023-05-21T07:17:12;23.10;99.90
32612;DHT22;19030;49.478;8.986;2023-05-21T07:19:14;23.10;99.90
32612;DHT22;19030;49.478;8.986;2023-05-21T07:21:16;23.10;99.90
32612;DHT22;19030;49.478;8.986;2023-05-21T07:23:20;23.20;99.90
32612;DHT22;19030;49.478;8.986;2023-05-21T07:25:21;23.40;99.90
32612;DHT22;19030;49.478;8.986;2023-05-21T07:27:22;23.40;99.90
32612;DHT22;19030;49.478;8.986;2023-05-21T07:29:22;23.40;99.90
32612;DHT22;19030;49.478;8.986;2023-05-21T07:31:23;23.50;99.90
32612;DHT22;19030;49.478;8.986;2023-05-21T07:33:26;23.50;99.90
32612;DHT22;19030;49.478;8.986;2023-05-21T07:35:27;23.60;99.90
32612;DHT22;19030;49.478;8.986;2023-05-21T07:37:28;23.70;99.90
32612;DHT22;19030;49.478;8.986;2023-05-21T07:39:30;23.90;99.90
32612;DHT22;19030;49.478;8.986;2023-05-21T07:41:31;24.10;99.10
32612;DHT22;19030;49.478;8.986;2023-05-21T07:43:34;24.30;99.70
32612;DHT22;19030;49.478;8.986;2023-05-21T07:45:35;24.50;96.30
32612;DHT22;19030;49.478;8.986;2023-05-21T07:47:36;24.70;95.30
32612;DHT22;19030;49.478;8.986;2023-05-21T07:49:36;24.80;94.30
32612;DHT22;19030;49.478;8.986;2023-05-21T07:51:37;25.10;93.40
32612;DHT22;19030;49.478;8.986;2023-05-21T07:53:37;25.40;92.10
32612;DHT22;19030;49.478;8.986;2023-05-21T07:55:44;25.70;88.60
32612;DHT22;19030;49.478;8.986;2023-05-21T07:57:47;26.20;89.30
32612;DHT22;19030;49.478;8.986;2023-05-21T07:59:50;26.80;87.30
32612;DHT22;19030;49.478;8.986;2023-05-21T08:01:51;27.20;81.80
32612;DHT22;19030;49.478;8.986;2023-05-21T08:03:52;27.40;81.70
32612;DHT22;19030;49.478;8.986;2023-05-21T08:05:53;27.70;80.50
32612;DHT22;19030;49.478;8.986;2023-05-21T08:07:53;27.90;76.40
32612;DHT22;19030;49.478;8.986;2023-05-21T08:09:55;27.80;71.40
32612;DHT22;19030;49.478;8.986;2023-05-21T08:11:55;27.80;72.10
32612;DHT22;19030;49.478;8.986;2023-05-21T08:13:56;27.90;72.70
32612;DHT22;19030;49.478;8.986;2023-05-21T08:15:57;27.90;67.50
32612;DHT22;19030;49.478;8.986;2023-05-21T08:17:58;27.80;66.10
32612;DHT22;19030;49.478;8.986;2023-05-21T08:19:59;27.70;69.20
32612;DHT22;19030;49.478;8.986;2023-05-21T08:22:01;27.40;66.20
32612;DHT22;19030;49.478;8.986;2023-05-21T08:24:05;27.00;67.30
32612;DHT22;19030;49.478;8.986;2023-05-21T08:26:06;26.50;69.40
32612;DHT22;19030;49.478;8.986;2023-05-21T08:28:09;26.30;71.90
32612;DHT22;19030;49.478;8.986;2023-05-21T08:30:10;26.10;71.80
32612;DHT22;19030;49.478;8.986;2023-05-21T08:32:11;25.80;69.20
32612;DHT22;19030;49.478;8.986;2023-05-21T08:34:12;25.70;70.00
32612;DHT22;19030;49.478;8.986;2023-05-21T08:36:19;25.50;71.60
32612;DHT22;19030;49.478;8.986;2023-05-21T08:38:27;25.30;72.00
32612;DHT22;19030;49.478;8.986;2023-05-21T08:40:45;25.40;72.10
32612;DHT22;19030;49.478;8.986;2023-05-21T08:42:50;25.60;73.00
32612;DHT22;19030;49.478;8.986;2023-05-21T08:45:06;25.80;70.00
32612;DHT22;19030;49.478;8.986;2023-05-21T08:47:07;26.10;69.20
32612;DHT22;19030;49.478;8.986;2023-05-21T08:49:11;26.80;66.70
32612;DHT22;19030;49.478;8.986;2023-05-21T08:51:12;27.50;64.00
32612;DHT22;19030;49.478;8.986;2023-05-21T08:53:23;28.10;62.10
32612;DHT22;19030;49.478;8.986;2023-05-21T08:55:23;29.20;59.60
32612;DHT22;19030;49.478;8.986;2023-05-21T08:57:24;30.30;56.50
32612;DHT22;19030;49.478;8.986;2023-05-21T08:59:26;31.30;54.10
32612;DHT22;19030;49.478;8.986;2023-05-21T09:01:27;32.00;52.20
32612;DHT22;19030;49.478;8.986;2023-05-21T09:03:34;32.30;49.50
32612;DHT22;19030;49.478;8.986;2023-05-21T09:05:40;32.90;48.40
32612;DHT22;19030;49.478;8.986;2023-05-21T09:07:54;33.50;48.00
32612;DHT22;19030;49.478;8.986;2023-05-21T09:10:28;33.80;45.00
32612;DHT22;19030;49.478;8.986;2023-05-21T09:12:31;33.90;45.20
32612;DHT22;19030;49.478;8.986;2023-05-21T09:14:34;33.90;44.20
32612;DHT22;19030;49.478;8.986;2023-05-21T09:16:45;34.10;43.80
32612;DHT22;19030;49.478;8.986;2023-05-21T09:18:48;34.20;43.50
32612;DHT22;19030;49.478;8.986;2023-05-21T09:21:21;33.40;44.50
32612;DHT22;19030;49.478;8.986;2023-05-21T09:23:20;32.80;44.80
32612;DHT22;19030;49.478;8.986;2023-05-21T09:25:25;32.60;45.10
32612;DHT22;19030;49.478;8.986;2023-05-21T09:27:31;33.00;45.10
32612;DHT22;19030;49.478;8.986;2023-05-21T09:29:33;33.40;44.50
32612;DHT22;19030;49.478;8.986;2023-05-21T09:31:33;33.50;43.50
32612;DHT22;19030;49.478;8.986;2023-05-21T09:33:45;32.80;43.80
32612;DHT22;19030;49.478;8.986;2023-05-21T09:35:46;32.70;44.40
32612;DHT22;19030;49.478;8.986;2023-05-21T09:37:50;32.90;44.90
32612;DHT22;19030;49.478;8.986;2023-05-21T09:39:51;33.00;44.10
32612;DHT22;19030;49.478;8.986;2023-05-21T09:41:52;32.80;45.10
32612;DHT22;19030;49.478;8.986;2023-05-21T09:44:01;32.50;44.70
32612;DHT22;19030;49.478;8.986;2023-05-21T09:46:02;32.40;44.50
32612;DHT22;19030;49.478;8.986;2023-05-21T09:48:05;32.40;44.10
32612;DHT22;19030;49.478;8.986;2023-05-21T09:50:07;32.40;44.20
32612;DHT22;19030;49.478;8.986;2023-05-21T09:52:08;32.80;44.10
32612;DHT22;19030;49.478;8.986;2023-05-21T09:54:09;33.30;43.40
32612;DHT22;19030;49.478;8.986;2023-05-21T09:56:10;33.30;43.80
32612;DHT22;19030;49.478;8.986;2023-05-21T09:58:11;33.30;44.80
32612;DHT22;19030;49.478;8.986;2023-05-21T10:02:21;33.70;43.80
32612;DHT22;19030;49.478;8.986;2023-05-21T10:04:22;34.10;43.40
32612;DHT22;19030;49.478;8.986;2023-05-21T10:06:28;34.00;42.30
32612;DHT22;19030;49.478;8.986;2023-05-21T10:08:32;33.50;43.20
32612;DHT22;19030;49.478;8.986;2023-05-21T10:10:36;33.40;43.20
32612;DHT22;19030;49.478;8.986;2023-05-21T10:12:42;33.20;43.90
32612;DHT22;19030;49.478;8.986;2023-05-21T10:14:46;33.00;45.30
32612;DHT22;19030;49.478;8.986;2023-05-21T10:16:51;32.80;45.20
32612;DHT22;19030;49.478;8.986;2023-05-21T10:18:53;32.40;46.60
32612;DHT22;19030;49.478;8.986;2023-05-21T10:20:54;32.00;46.40
32612;DHT22;19030;49.478;8.986;2023-05-21T10:22:56;31.70;46.30
32612;DHT22;19030;49.478;8.986;2023-05-21T10:24:57;31.20;47.20
32612;DHT22;19030;49.478;8.986;2023-05-21T10:26:59;31.10;47.80
32612;DHT22;19030;49.478;8.986;2023-05-21T10:29:01;30.80;48.20
32612;DHT22;19030;49.478;8.986;2023-05-21T10:31:02;30.70;49.10
32612;DHT22;19030;49.478;8.986;2023-05-21T10:33:03;30.60;49.70
32612;DHT22;19030;49.478;8.986;2023-05-21T10:35:05;30.40;49.00
32612;DHT22;19030;49.478;8.986;2023-05-21T10:37:07;30.20;49.70
32612;DHT22;19030;49.478;8.986;2023-05-21T10:39:11;30.20;50.10
32612;DHT22;19030;49.478;8.986;2023-05-21T10:41:14;30.20;50.90
32612;DHT22;19030;49.478;8.986;2023-05-21T10:51:03;30.90;50.60
32612;DHT22;19030;49.478;8.986;2023-05-21T10:53:15;30.90;48.60
32612;DHT22;19030;49.478;8.986;2023-05-21T10:57:49;30.70;49.10
32612;DHT22;19030;49.478;8.986;2023-05-21T10:59:53;30.90;50.20
32612;DHT22;19030;49.478;8.986;2023-05-21T11:01:56;30.80;49.50
32612;DHT22;19030;49.478;8.986;2023-05-21T11:03:57;30.60;49.10
32612;DHT22;19030;49.478;8.986;2023-05-21T11:05:58;30.50;52.20
32612;DHT22;19030;49.478;8.986;2023-05-21T11:08:01;30.60;50.50
32612;DHT22;19030;49.478;8.986;2023-05-21T11:13:06;30.60;47.00
32612;DHT22;19030;49.478;8.986;2023-05-21T11:15:07;30.60;47.40
32612;DHT22;19030;49.478;8.986;2023-05-21T11:19:16;31.00;47.50
32612;DHT22;19030;49.478;8.986;2023-05-21T11:21:20;31.30;49.30
32612;DHT22;19030;49.478;8.986;2023-05-21T11:23:21;31.70;48.20
32612;DHT22;19030;49.478;8.986;2023-05-21T11:25:22;31.70;46.20
32612;DHT22;19030;49.478;8.986;2023-05-21T11:27:38;31.60;47.40
32612;DHT22;19030;49.478;8.986;2023-05-21T11:29:41;31.90;46.10
32612;DHT22;19030;49.478;8.986;2023-05-21T11:31:46;31.90;46.00
32612;DHT22;19030;49.478;8.986;2023-05-21T11:33:47;31.70;44.60
32612;DHT22;19030;49.478;8.986;2023-05-21T11:37:53;32.10;45.00
32612;DHT22;19030;49.478;8.986;2023-05-21T11:39:56;32.70;44.20
32612;DHT22;19030;49.478;8.986;2023-05-21T11:42:01;32.90;42.70
32612;DHT22;19030;49.478;8.986;2023-05-21T11:44:01;32.70;42.00
32612;DHT22;19030;49.478;8.986;2023-05-21T11:46:02;32.60;42.80
32612;DHT22;19030;49.478;8.986;2023-05-21T11:48:04;32.40;43.40
32612;DHT22;19030;49.478;8.986;2023-05-21T11:50:05;32.50;42.20
32612;DHT22;19030;49.478;8.986;2023-05-21T11:52:12;32.80;41.50
32612;DHT22;19030;49.478;8.986;2023-05-21T11:54:12;33.10;42.00
32612;DHT22;19030;49.478;8.986;2023-05-21T11:56:13;33.00;42.20
32612;DHT22;19030;49.478;8.986;2023-05-21T11:58:14;32.60;42.60
32612;DHT22;19030;49.478;8.986;2023-05-21T12:00:18;32.20;41.70
32612;DHT22;19030;49.478;8.986;2023-05-21T12:02:20;31.70;42.50
32612;DHT22;19030;49.478;8.986;2023-05-21T12:04:21;31.50;43.50
32612;DHT22;19030;49.478;8.986;2023-05-21T12:06:25;31.20;44.10
32612;DHT22;19030;49.478;8.986;2023-05-21T12:08:26;31.50;44.40
32612;DHT22;19030;49.478;8.986;2023-05-21T12:10:26;31.70;43.70
32612;DHT22;19030;49.478;8.986;2023-05-21T12:12:27;31.70;43.50
32612;DHT22;19030;49.478;8.986;2023-05-21T12:14:27;31.60;45.30
32612;DHT22;19030;49.478;8.986;2023-05-21T12:16:28;31.60;45.50
32612;DHT22;19030;49.478;8.986;2023-05-21T12:18:30;31.30;44.30
32612;DHT22;19030;49.478;8.986;2023-05-21T12:20:30;30.80;44.50
32612;DHT22;19030;49.478;8.986;2023-05-21T12:22:31;30.60;44.30
32612;DHT22;19030;49.478;8.986;2023-05-21T12:24:33;30.40;44.20
32612;DHT22;19030;49.478;8.986;2023-05-21T12:26:33;30.40;44.70
32612;DHT22;19030;49.478;8.986;2023-05-21T12:28:35;30.60;45.70
32612;DHT22;19030;49.478;8.986;2023-05-21T12:30:36;30.60;46.60
32612;DHT22;19030;49.478;8.986;2023-05-21T12:32:39;31.00;47.20
32612;DHT22;19030;49.478;8.986;2023-05-21T12:34:49;31.30;45.90
32612;DHT22;19030;49.478;8.986;2023-05-21T12:36:50;31.60;45.80
32612;DHT22;19030;49.478;8.986;2023-05-21T12:38:51;31.80;44.70
32612;DHT22;19030;49.478;8.986;2023-05-21T12:40:51;31.70;44.50
32612;DHT22;19030;49.478;8.986;2023-05-21T12:42:52;31.90;43.30
32612;DHT22;19030;49.478;8.986;2023-05-21T12:44:53;31.80;44.40
32612;DHT22;19030;49.478;8.986;2023-05-21T12:46:53;31.50;44.50
32612;DHT22;19030;49.478;8.986;2023-05-21T12:48:54;31.20;44.50
32612;DHT22;19030;49.478;8.986;2023-05-21T12:50:58;31.10;44.10
32612;DHT22;19030;49.478;8.986;2023-05-21T12:52:58;31.40;44.70
32612;DHT22;19030;49.478;8.986;2023-05-21T12:54:59;31.60;44.00
32612;DHT22;19030;49.478;8.986;2023-05-21T12:57:07;31.40;44.00
32612;DHT22;19030;49.478;8.986;2023-05-21T12:59:12;31.00;44.70
32612;DHT22;19030;49.478;8.986;2023-05-21T13:01:13;30.90;46.10
32612;DHT22;19030;49.478;8.986;2023-05-21T13:03:14;30.80;46.30
32612;DHT22;19030;49.478;8.986;2023-05-21T13:05:16;30.60;46.70
32612;DHT22;19030;49.478;8.986;2023-05-21T13:07:17;30.30;47.00
32612;DHT22;19030;49.478;8.986;2023-05-21T13:09:18;30.20;48.80
32612;DHT22;19030;49.478;8.986;2023-05-21T13:11:18;30.10;47.40
32612;DHT22;19030;49.478;8.986;2023-05-21T13:13:19;30.00;47.00
32612;DHT22;19030;49.478;8.986;2023-05-21T13:15:19;30.30;46.20